createdAt,value
2023-01-19T00:00:11.043Z,82.94
2023-01-19T00:01:10.972Z,83.15
2023-01-19T00:02:10.949Z,83.15
2023-01-19T00:03:10.944Z,83.15
2023-01-19T00:04:10.941Z,83.15
2023-01-19T00:05:10.919Z,83.04
2023-01-19T00:06:10.973Z,83.04
2023-01-19T00:07:10.912Z,83.04
2023-01-19T00:08:10.895Z,83.04
2023-01-19T00:09:10.879Z,83.04
2023-01-19T00:10:10.860Z,83.04
2023-01-19T00:11:10.866Z,83.04
2023-01-19T00:12:10.857Z,83.04
2023-01-19T00:13:10.844Z,82.94
2023-01-19T00:14:10.835Z,82.94
2023-01-19T00:15:10.812Z,82.94
2023-01-19T00:16:10.813Z,82.94
2023-01-19T00:17:10.803Z,82.94
2023-01-19T00:18:11.242Z,82.94
2023-01-19T00:19:10.789Z,82.94
2023-01-19T00:20:10.777Z,82.94
2023-01-19T00:21:10.749Z,83.04
2023-01-19T00:22:10.756Z,83.04
2023-01-19T00:23:10.734Z,83.04
2023-01-19T00:24:10.724Z,83.15
2023-01-19T00:25:10.711Z,83.04
2023-01-19T00:26:10.709Z,83.15
2023-01-19T00:27:10.695Z,83.15
2023-01-19T00:28:10.719Z,83.25
2023-01-19T00:29:10.674Z,83.25
2023-01-19T00:30:10.662Z,83.25
2023-01-19T00:31:10.688Z,83.25
2023-01-19T00:32:10.638Z,83.25
2023-01-19T00:33:10.627Z,83.25
2023-01-19T00:34:10.612Z,83.25
2023-01-19T00:35:10.631Z,83.25
2023-01-19T00:36:10.582Z,83.25
2023-01-19T00:37:10.569Z,83.25
2023-01-19T00:38:10.569Z,83.25
2023-01-19T00:39:10.564Z,83.32
2023-01-19T00:40:10.548Z,83.32
2023-01-19T00:41:10.537Z,83.32
2023-01-19T00:42:10.540Z,83.32
2023-01-19T00:43:10.507Z,83.22
2023-01-19T00:44:10.497Z,83.15
2023-01-19T00:45:10.478Z,83.22
2023-01-19T00:46:10.550Z,83.32
2023-01-19T00:47:10.452Z,83.32
2023-01-19T00:48:10.449Z,83.32
2023-01-19T00:49:10.445Z,83.42
2023-01-19T00:50:10.437Z,83.42
2023-01-19T00:51:10.458Z,83.42
2023-01-19T00:52:10.416Z,83.32
2023-01-19T00:53:10.397Z,83.32
2023-01-19T00:54:10.510Z,83.42
2023-01-19T00:55:10.387Z,83.32
2023-01-19T00:56:10.372Z,83.42
2023-01-19T00:57:10.366Z,83.42
2023-01-19T00:58:10.346Z,83.53
2023-01-19T00:59:10.351Z,83.53
2023-01-19T01:00:10.335Z,83.53
2023-01-19T01:01:10.389Z,83.42
2023-01-19T01:02:10.468Z,83.42
2023-01-19T01:03:10.345Z,83.42
2023-01-19T01:04:10.279Z,83.42
2023-01-19T01:05:10.275Z,83.42
2023-01-19T01:06:10.270Z,83.32
2023-01-19T01:07:10.262Z,83.32
2023-01-19T01:08:10.251Z,83.32
2023-01-19T01:09:10.225Z,83.32
2023-01-19T01:10:10.211Z,83.22
2023-01-19T01:11:10.193Z,83.22
2023-01-19T01:12:10.202Z,83.22
2023-01-19T01:13:21.229Z,83.22
2023-01-19T01:14:10.187Z,83.22
2023-01-19T01:15:10.156Z,83.11
2023-01-19T01:16:10.230Z,83.11
2023-01-19T01:17:10.129Z,83.11
2023-01-19T01:18:10.119Z,83.11
2023-01-19T01:19:10.113Z,83.01
2023-01-19T01:20:10.112Z,83.11
2023-01-19T01:21:10.092Z,83.22
2023-01-19T01:22:10.108Z,83.32
2023-01-19T01:23:10.064Z,83.22
2023-01-19T01:24:10.088Z,83.22
2023-01-19T01:25:10.134Z,83.11
2023-01-19T01:26:10.031Z,83.01
2023-01-19T01:27:10.034Z,82.90
2023-01-19T01:28:10.022Z,82.90
2023-01-19T01:29:09.997Z,82.90
2023-01-19T01:30:10.004Z,82.90
2023-01-19T01:31:09.979Z,82.80
2023-01-19T01:32:09.970Z,82.80
2023-01-19T01:33:09.967Z,82.80
2023-01-19T01:34:09.956Z,82.80
2023-01-19T01:35:09.945Z,82.80
2023-01-19T01:36:09.938Z,82.80
2023-01-19T01:37:09.912Z,82.90
2023-01-19T01:38:09.899Z,83.01
2023-01-19T01:39:09.935Z,83.01
2023-01-19T01:40:09.881Z,83.01
2023-01-19T01:41:09.886Z,83.01
2023-01-19T01:42:09.860Z,82.90
2023-01-19T01:43:09.856Z,82.90
2023-01-19T01:44:09.831Z,82.80
2023-01-19T01:45:09.823Z,82.80
2023-01-19T01:46:09.870Z,82.80
2023-01-19T01:47:09.835Z,82.80
2023-01-19T01:48:09.795Z,82.90
2023-01-19T01:49:09.773Z,82.80
2023-01-19T01:50:09.782Z,82.80
2023-01-19T01:51:09.753Z,82.80
2023-01-19T01:52:09.748Z,82.90
2023-01-19T01:53:09.968Z,83.01
2023-01-19T01:54:09.723Z,83.01
2023-01-19T01:55:09.717Z,82.90
2023-01-19T01:56:09.701Z,83.01
2023-01-19T01:57:09.699Z,83.01
2023-01-19T01:58:09.696Z,83.01
2023-01-19T01:59:09.704Z,83.01
2023-01-19T02:00:09.664Z,83.01
2023-01-19T02:01:09.786Z,82.90
2023-01-19T02:02:09.639Z,82.90
2023-01-19T02:03:09.652Z,82.80
2023-01-19T02:04:09.620Z,82.90
2023-01-19T02:05:09.615Z,82.90
2023-01-19T02:06:09.620Z,82.80
2023-01-19T02:07:09.583Z,82.80
2023-01-19T02:08:09.582Z,82.80
2023-01-19T02:09:09.564Z,82.80
2023-01-19T02:10:09.548Z,82.65
2023-01-19T02:11:09.569Z,82.76
2023-01-19T02:12:09.541Z,82.65
2023-01-19T02:13:09.519Z,82.70
2023-01-19T02:14:09.542Z,82.70
2023-01-19T02:15:09.512Z,82.59
2023-01-19T02:16:09.486Z,82.59
2023-01-19T02:17:09.471Z,82.59
2023-01-19T02:18:09.467Z,82.59
2023-01-19T02:19:09.465Z,82.59
2023-01-19T02:20:09.441Z,82.59
2023-01-19T02:21:09.456Z,82.48
2023-01-19T02:22:09.434Z,82.48
2023-01-19T02:23:09.410Z,82.48
2023-01-19T02:24:09.387Z,82.48
2023-01-19T02:25:09.408Z,82.59
2023-01-19T02:26:09.386Z,82.48
2023-01-19T02:27:09.366Z,82.55
2023-01-19T02:28:09.381Z,82.59
2023-01-19T02:29:09.340Z,82.55
2023-01-19T02:30:09.338Z,82.59
2023-01-19T02:31:09.316Z,82.59
2023-01-19T02:32:09.318Z,82.70
2023-01-19T02:33:09.320Z,82.65
2023-01-19T02:34:09.299Z,82.65
2023-01-19T02:35:09.285Z,82.65
2023-01-19T02:36:09.284Z,82.65
2023-01-19T02:37:09.242Z,82.65
2023-01-19T02:38:09.250Z,82.45
2023-01-19T02:39:09.246Z,82.45
2023-01-19T02:40:09.208Z,82.45
2023-01-19T02:41:09.207Z,82.55
2023-01-19T02:42:09.205Z,82.45
2023-01-19T02:43:09.197Z,82.45
2023-01-19T02:44:09.189Z,82.55
2023-01-19T02:45:09.163Z,82.45
2023-01-19T02:46:09.175Z,82.34
2023-01-19T02:47:09.164Z,82.48
2023-01-19T02:48:09.136Z,82.55
2023-01-19T02:49:09.135Z,82.48
2023-01-19T02:50:09.122Z,82.59
2023-01-19T02:51:09.093Z,82.48
2023-01-19T02:52:09.080Z,82.48
2023-01-19T02:53:09.089Z,82.48
2023-01-19T02:54:09.052Z,82.34
2023-01-19T02:55:09.046Z,82.34
2023-01-19T02:56:09.032Z,82.34
2023-01-19T02:57:09.027Z,82.34
2023-01-19T02:58:09.015Z,82.34
2023-01-19T02:59:09.021Z,82.24
2023-01-19T03:00:08.991Z,82.24
2023-01-19T03:01:09.102Z,82.14
2023-01-19T03:02:09.150Z,82.24
2023-01-19T03:03:08.984Z,82.45
2023-01-19T03:04:08.965Z,82.45
2023-01-19T03:05:08.951Z,82.45
2023-01-19T03:06:08.931Z,82.34
2023-01-19T03:07:08.925Z,82.34
2023-01-19T03:08:08.903Z,82.45
2023-01-19T03:09:08.918Z,82.34
2023-01-19T03:10:08.880Z,82.24
2023-01-19T03:11:08.867Z,82.28
2023-01-19T03:12:08.877Z,82.28
2023-01-19T03:13:08.849Z,82.38
2023-01-19T03:14:08.851Z,82.48
2023-01-19T03:15:08.852Z,82.38
2023-01-19T03:16:21.875Z,82.38
2023-01-19T03:17:08.833Z,82.48
2023-01-19T03:18:08.822Z,82.45
2023-01-19T03:19:08.797Z,82.45
2023-01-19T03:20:08.777Z,82.34
2023-01-19T03:21:08.785Z,82.24
2023-01-19T03:22:08.756Z,82.24
2023-01-19T03:23:08.741Z,82.24
2023-01-19T03:24:08.726Z,82.24
2023-01-19T03:25:08.749Z,82.24
2023-01-19T03:26:08.723Z,82.34
2023-01-19T03:27:08.704Z,82.45
2023-01-19T03:28:08.682Z,82.34
2023-01-19T03:29:08.676Z,82.38
2023-01-19T03:30:08.659Z,82.38
2023-01-19T03:31:08.763Z,82.38
2023-01-19T03:32:08.657Z,82.38
2023-01-19T03:33:08.643Z,82.38
2023-01-19T03:34:08.623Z,82.38
2023-01-19T03:35:08.603Z,82.48
2023-01-19T03:36:08.625Z,82.45
2023-01-19T03:37:08.595Z,82.34
2023-01-19T03:38:08.571Z,82.38
2023-01-19T03:39:08.564Z,82.34
2023-01-19T03:40:08.554Z,82.34
2023-01-19T03:41:08.545Z,82.28
2023-01-19T03:42:08.560Z,82.38
2023-01-19T03:43:08.538Z,82.38
2023-01-19T03:44:08.521Z,82.48
2023-01-19T03:45:08.498Z,82.45
2023-01-19T03:46:08.540Z,82.45
2023-01-19T03:47:08.467Z,82.55
2023-01-19T03:48:08.474Z,82.55
2023-01-19T03:49:08.451Z,82.45
2023-01-19T03:50:08.448Z,82.34
2023-01-19T03:51:08.454Z,82.24
2023-01-19T03:52:08.418Z,82.24
2023-01-19T03:53:08.429Z,82.24
2023-01-19T03:54:08.418Z,82.24
2023-01-19T03:55:08.390Z,82.24
2023-01-19T03:56:08.388Z,82.24
2023-01-19T03:57:08.366Z,82.24
2023-01-19T03:58:08.368Z,82.24
2023-01-19T03:59:08.377Z,82.24
2023-01-19T04:00:08.341Z,82.24
2023-01-19T04:01:08.462Z,82.24
2023-01-19T04:02:08.342Z,82.34
2023-01-19T04:03:08.333Z,82.34
2023-01-19T04:04:08.283Z,82.55
2023-01-19T04:05:08.302Z,82.55
2023-01-19T04:06:08.269Z,82.45
2023-01-19T04:07:08.255Z,82.34
2023-01-19T04:08:08.246Z,82.34
2023-01-19T04:09:08.225Z,82.24
2023-01-19T04:10:08.237Z,82.24
2023-01-19T04:11:08.244Z,82.24
2023-01-19T04:12:08.197Z,82.14
2023-01-19T04:13:08.198Z,82.24
2023-01-19T04:14:08.183Z,82.14
2023-01-19T04:15:08.158Z,82.03
2023-01-19T04:16:08.334Z,82.03
2023-01-19T04:17:08.136Z,82.03
2023-01-19T04:18:08.129Z,82.03
2023-01-19T04:19:08.132Z,82.03
2023-01-19T04:20:08.102Z,82.03
2023-01-19T04:21:08.096Z,82.03
2023-01-19T04:22:08.096Z,82.14
2023-01-19T04:23:08.066Z,82.14
2023-01-19T04:24:08.074Z,82.24
2023-01-19T04:25:08.117Z,82.24
2023-01-19T04:26:08.068Z,82.45
2023-01-19T04:27:08.032Z,82.55
2023-01-19T04:28:08.020Z,82.87
2023-01-19T04:29:08.039Z,83.18
2023-01-19T04:30:08.019Z,83.49
2023-01-19T04:31:08.092Z,83.74
2023-01-19T04:32:07.970Z,83.95
2023-01-19T04:33:07.978Z,84.26
2023-01-19T04:34:07.962Z,84.47
2023-01-19T04:35:07.963Z,84.57
2023-01-19T04:36:07.924Z,84.78
2023-01-19T04:37:07.929Z,84.88
2023-01-19T04:38:07.915Z,85.10
2023-01-19T04:39:07.894Z,85.30
2023-01-19T04:40:07.904Z,85.51
2023-01-19T04:41:07.879Z,85.72
2023-01-19T04:42:07.889Z,85.97
2023-01-19T04:43:07.860Z,86.18
2023-01-19T04:44:07.984Z,86.38
2023-01-19T04:45:07.844Z,86.59
2023-01-19T04:46:07.879Z,86.80
2023-01-19T04:47:07.819Z,87.01
2023-01-19T04:48:07.799Z,87.22
2023-01-19T04:49:07.798Z,87.53
2023-01-19T04:50:07.791Z,87.63
2023-01-19T04:51:07.782Z,87.84
2023-01-19T04:52:07.758Z,87.99
2023-01-19T04:53:07.775Z,88.20
2023-01-19T04:54:07.787Z,88.30
2023-01-19T04:55:07.743Z,88.41
2023-01-19T04:56:07.707Z,88.51
2023-01-19T04:57:07.714Z,88.62
2023-01-19T04:58:07.701Z,88.72
2023-01-19T04:59:07.713Z,88.72
2023-01-19T05:00:07.682Z,88.82
2023-01-19T05:01:07.731Z,88.82
2023-01-19T05:02:07.681Z,88.93
2023-01-19T05:03:07.728Z,88.93
2023-01-19T05:04:07.617Z,89.03
2023-01-19T05:05:07.636Z,89.03
2023-01-19T05:06:07.604Z,89.03
2023-01-19T05:07:07.593Z,89.03
2023-01-19T05:08:07.595Z,89.14
2023-01-19T05:09:07.584Z,89.14
2023-01-19T05:10:07.561Z,89.14
2023-01-19T05:11:07.577Z,89.24
2023-01-19T05:12:07.542Z,89.34
2023-01-19T05:13:07.538Z,89.34
2023-01-19T05:14:07.539Z,89.45
2023-01-19T05:15:07.510Z,89.45
2023-01-19T05:16:07.561Z,89.56
2023-01-19T05:17:07.486Z,89.56
2023-01-19T05:18:07.483Z,89.66
2023-01-19T05:19:07.565Z,89.76
2023-01-19T05:20:07.445Z,89.76
2023-01-19T05:21:07.452Z,89.76
2023-01-19T05:22:07.446Z,89.87
2023-01-19T05:23:07.426Z,89.87
2023-01-19T05:24:07.416Z,89.87
2023-01-19T05:25:07.391Z,89.87
2023-01-19T05:26:09.500Z,89.87
2023-01-19T05:27:07.392Z,89.87
2023-01-19T05:28:07.357Z,90.01
2023-01-19T05:29:07.348Z,89.97
2023-01-19T05:30:07.356Z,90.08
2023-01-19T05:31:07.460Z,90.08
2023-01-19T05:32:07.373Z,90.18
2023-01-19T05:33:07.319Z,90.18
2023-01-19T05:34:07.307Z,90.18
2023-01-19T05:35:07.306Z,90.28
2023-01-19T05:36:07.297Z,90.28
2023-01-19T05:37:07.292Z,90.39
2023-01-19T05:38:07.253Z,90.39
2023-01-19T05:39:07.255Z,90.39
2023-01-19T05:40:07.227Z,90.39
2023-01-19T05:41:07.216Z,90.50
2023-01-19T05:42:07.230Z,90.50
2023-01-19T05:43:07.207Z,90.50
2023-01-19T05:44:07.201Z,90.50
2023-01-19T05:45:07.197Z,90.50
2023-01-19T05:46:07.157Z,90.60
2023-01-19T05:47:07.159Z,90.50
2023-01-19T05:48:09.289Z,90.50
2023-01-19T05:49:07.144Z,90.50
2023-01-19T05:50:07.150Z,90.50
2023-01-19T05:51:07.128Z,90.50
2023-01-19T05:52:07.106Z,90.50
2023-01-19T05:53:07.092Z,90.50
2023-01-19T05:54:07.094Z,90.45
2023-01-19T05:55:07.068Z,90.50
2023-01-19T05:56:07.078Z,90.35
2023-01-19T05:57:07.043Z,90.39
2023-01-19T05:58:07.045Z,90.39
2023-01-19T05:59:07.022Z,90.28
2023-01-19T06:00:07.025Z,90.28
2023-01-19T06:01:07.095Z,90.28
2023-01-19T06:02:07.120Z,90.28
2023-01-19T06:03:07.024Z,90.28
2023-01-19T06:04:06.991Z,90.28
2023-01-19T06:05:06.973Z,90.28
2023-01-19T06:06:06.965Z,90.28
2023-01-19T06:07:07.000Z,90.39
2023-01-19T06:08:06.928Z,90.28
2023-01-19T06:09:06.917Z,90.25
2023-01-19T06:10:06.934Z,90.25
2023-01-19T06:11:06.906Z,90.25
2023-01-19T06:12:06.892Z,90.25
2023-01-19T06:13:06.886Z,90.25
2023-01-19T06:14:06.862Z,90.35
2023-01-19T06:15:06.855Z,90.25
2023-01-19T06:16:06.885Z,90.25
2023-01-19T06:17:06.839Z,90.28
2023-01-19T06:18:06.817Z,90.14
2023-01-19T06:19:06.813Z,90.18
2023-01-19T06:20:06.787Z,90.18
2023-01-19T06:21:06.787Z,90.08
2023-01-19T06:22:06.790Z,90.08
2023-01-19T06:23:06.759Z,90.08
2023-01-19T06:24:06.762Z,90.08
2023-01-19T06:25:06.748Z,90.08
2023-01-19T06:26:06.729Z,90.08
2023-01-19T06:27:06.755Z,90.08
2023-01-19T06:28:06.710Z,90.08
2023-01-19T06:29:06.706Z,90.08
2023-01-19T06:30:06.687Z,90.08
2023-01-19T06:31:06.727Z,90.08
2023-01-19T06:32:06.658Z,90.03
2023-01-19T06:33:06.667Z,90.08
2023-01-19T06:34:06.647Z,89.97
2023-01-19T06:35:06.624Z,89.97
2023-01-19T06:36:06.645Z,89.97
2023-01-19T06:37:06.612Z,89.97
2023-01-19T06:38:06.589Z,89.97
2023-01-19T06:39:06.612Z,89.97
2023-01-19T06:40:06.583Z,89.97
2023-01-19T06:41:06.592Z,89.97
2023-01-19T06:42:06.574Z,89.97
2023-01-19T06:43:06.539Z,90.08
2023-01-19T06:44:06.525Z,90.08
2023-01-19T06:45:06.522Z,90.08
2023-01-19T06:46:06.579Z,90.08
2023-01-19T06:47:14.681Z,90.08
2023-01-19T06:48:06.485Z,90.08
2023-01-19T06:49:06.513Z,90.18
2023-01-19T06:50:06.475Z,90.18
2023-01-19T06:51:06.445Z,90.18
2023-01-19T06:52:06.452Z,90.18
2023-01-19T06:53:06.458Z,90.18
2023-01-19T06:54:06.448Z,90.18
2023-01-19T06:55:06.421Z,90.18
2023-01-19T06:56:06.395Z,90.18
2023-01-19T06:57:06.378Z,90.18
2023-01-19T06:58:06.379Z,90.18
2023-01-19T06:59:06.366Z,90.18
2023-01-19T07:00:06.344Z,90.18
2023-01-19T07:01:06.472Z,90.18
2023-01-19T07:02:27.043Z,90.18
2023-01-19T07:03:06.376Z,90.25
2023-01-19T07:04:06.316Z,90.35
2023-01-19T07:05:06.312Z,90.35
2023-01-19T07:06:06.361Z,90.35
2023-01-19T07:07:06.282Z,90.25
2023-01-19T07:08:06.269Z,90.28
2023-01-19T07:09:06.264Z,90.28
2023-01-19T07:10:06.243Z,90.18
2023-01-19T07:11:25.246Z,90.18
2023-01-19T07:12:06.241Z,90.18
2023-01-19T07:13:06.249Z,90.18
2023-01-19T07:14:06.227Z,90.18
2023-01-19T07:15:06.182Z,90.28
2023-01-19T07:16:08.070Z,90.28
2023-01-19T07:17:06.177Z,90.18
2023-01-19T07:18:06.176Z,90.18
2023-01-19T07:19:06.152Z,90.14
2023-01-19T07:20:06.145Z,90.18
2023-01-19T07:21:06.120Z,90.18
2023-01-19T07:22:06.104Z,90.18
2023-01-19T07:23:06.098Z,90.14
2023-01-19T07:24:06.090Z,90.18
2023-01-19T07:25:06.145Z,90.18
2023-01-19T07:26:06.092Z,90.18
2023-01-19T07:27:06.060Z,90.08
2023-01-19T07:28:06.044Z,90.08
2023-01-19T07:29:06.052Z,90.08
2023-01-19T07:30:06.027Z,90.18
2023-01-19T07:31:06.232Z,90.18
2023-01-19T07:32:06.011Z,90.18
2023-01-19T07:33:05.988Z,90.18
2023-01-19T07:34:05.984Z,90.18
2023-01-19T07:35:05.994Z,90.18
2023-01-19T07:36:05.988Z,90.18
2023-01-19T07:37:05.990Z,90.18
2023-01-19T07:38:05.928Z,90.28
2023-01-19T07:39:05.942Z,90.28
2023-01-19T07:40:05.917Z,90.28
2023-01-19T07:41:05.913Z,90.28
2023-01-19T07:42:05.971Z,90.28
2023-01-19T07:43:05.884Z,90.28
2023-01-19T07:44:06.146Z,90.28
2023-01-19T07:45:05.859Z,90.28
2023-01-19T07:46:06.080Z,90.28
2023-01-19T07:47:05.857Z,90.28
2023-01-19T07:48:05.844Z,90.39
2023-01-19T07:49:05.811Z,90.39
2023-01-19T07:50:05.807Z,90.39
2023-01-19T07:51:05.970Z,90.50
2023-01-19T07:52:05.817Z,90.39
2023-01-19T07:53:05.810Z,90.39
2023-01-19T07:54:05.759Z,90.39
2023-01-19T07:55:05.746Z,90.39
2023-01-19T07:56:05.753Z,90.39
2023-01-19T07:57:05.732Z,90.35
2023-01-19T07:58:05.721Z,90.39
2023-01-19T07:59:05.713Z,90.39
2023-01-19T08:00:05.705Z,90.39
2023-01-19T08:01:05.803Z,90.39
2023-01-19T08:02:05.919Z,90.39
2023-01-19T08:03:05.677Z,90.50
2023-01-19T08:04:05.655Z,90.39
2023-01-19T08:05:05.652Z,90.39
2023-01-19T08:06:05.631Z,90.39
2023-01-19T08:07:05.649Z,90.39
2023-01-19T08:08:05.625Z,90.39
2023-01-19T08:09:05.699Z,90.39
2023-01-19T08:10:05.591Z,90.39
2023-01-19T08:11:05.576Z,90.39
2023-01-19T08:12:05.575Z,90.39
2023-01-19T08:13:05.556Z,90.39
2023-01-19T08:14:07.854Z,90.39
2023-01-19T08:15:05.558Z,90.39
2023-01-19T08:16:05.604Z,90.50
2023-01-19T08:17:05.521Z,90.50
2023-01-19T08:18:05.615Z,90.50
2023-01-19T08:19:05.496Z,90.50
2023-01-19T08:20:05.468Z,90.50
2023-01-19T08:21:05.472Z,90.45
2023-01-19T08:22:05.443Z,90.45
2023-01-19T08:23:05.501Z,90.45
2023-01-19T08:24:05.611Z,90.45
2023-01-19T08:25:05.413Z,90.45
2023-01-19T08:26:05.422Z,90.35
2023-01-19T08:27:05.999Z,90.35
2023-01-19T08:28:05.391Z,90.35
2023-01-19T08:29:05.365Z,90.35
2023-01-19T08:30:05.448Z,90.35
2023-01-19T08:31:19.160Z,90.35
2023-01-19T08:32:05.619Z,90.35
2023-01-19T08:33:05.329Z,90.25
2023-01-19T08:34:05.327Z,90.25
2023-01-19T08:35:05.336Z,90.25
2023-01-19T08:36:05.296Z,90.25
2023-01-19T08:37:05.291Z,90.25
2023-01-19T08:38:05.270Z,90.14
2023-01-19T08:39:05.279Z,90.14
2023-01-19T08:40:05.264Z,90.14
2023-01-19T08:41:05.286Z,90.14
2023-01-19T08:42:05.246Z,90.03
2023-01-19T08:43:05.241Z,90.14
2023-01-19T08:44:05.227Z,90.14
2023-01-19T08:45:05.227Z,90.14
2023-01-19T08:46:05.249Z,90.14
2023-01-19T08:47:05.289Z,90.10
2023-01-19T08:48:05.166Z,90.10
2023-01-19T08:49:05.184Z,90.10
2023-01-19T08:50:05.171Z,90.00
2023-01-19T08:51:05.167Z,90.00
2023-01-19T08:52:05.160Z,89.89
2023-01-19T08:53:05.167Z,89.89
2023-01-19T08:54:05.132Z,89.89
2023-01-19T08:55:05.148Z,89.78
2023-01-19T08:56:05.210Z,89.78
2023-01-19T08:57:05.113Z,89.78
2023-01-19T08:58:05.104Z,89.68
2023-01-19T08:59:09.897Z,89.68
2023-01-19T09:00:05.034Z,89.58
2023-01-19T09:01:05.100Z,89.68
2023-01-19T09:02:05.055Z,89.58
2023-01-19T09:03:05.640Z,89.68
2023-01-19T09:04:05.030Z,89.68
2023-01-19T09:05:04.985Z,89.68
2023-01-19T09:06:04.966Z,89.68
2023-01-19T09:08:04.958Z,89.68
2023-01-19T09:09:04.994Z,89.68
2023-01-19T09:10:04.936Z,89.68
2023-01-19T09:11:04.922Z,89.68
2023-01-19T09:12:04.897Z,89.68
2023-01-19T09:13:04.919Z,89.68
2023-01-19T09:14:04.887Z,89.68
2023-01-19T09:15:04.883Z,89.58
2023-01-19T09:16:04.918Z,89.58
2023-01-19T09:17:04.869Z,89.58
2023-01-19T09:18:04.846Z,89.43
2023-01-19T09:19:04.840Z,89.47
2023-01-19T09:20:04.814Z,89.43
2023-01-19T09:21:04.819Z,89.47
2023-01-19T09:22:04.787Z,89.43
2023-01-19T09:23:04.800Z,89.43
2023-01-19T09:24:04.772Z,89.32
2023-01-19T09:25:04.756Z,89.32
2023-01-19T09:26:04.811Z,89.32
2023-01-19T09:27:04.739Z,89.32
2023-01-19T09:28:04.724Z,89.32
2023-01-19T09:29:04.737Z,89.43
2023-01-19T09:30:04.738Z,89.54
2023-01-19T09:31:04.855Z,89.54
2023-01-19T09:32:04.715Z,89.50
2023-01-19T09:33:04.691Z,89.50
2023-01-19T09:34:04.688Z,89.50
2023-01-19T09:35:04.654Z,89.50
2023-01-19T09:36:04.657Z,89.50
2023-01-19T09:37:04.625Z,89.39
2023-01-19T09:38:04.657Z,89.18
2023-01-19T09:39:04.599Z,89.08
2023-01-19T09:40:04.716Z,89.08
2023-01-19T09:41:04.604Z,88.98
2023-01-19T09:42:04.578Z,88.98
2023-01-19T09:43:04.579Z,88.98
2023-01-19T09:44:04.564Z,88.98
2023-01-19T09:45:04.636Z,89.08
2023-01-19T09:46:04.580Z,88.98
2023-01-19T09:47:04.516Z,88.87
2023-01-19T09:48:04.514Z,88.76
2023-01-19T09:49:04.528Z,88.73
2023-01-19T09:50:04.504Z,88.66
2023-01-19T09:51:04.493Z,88.56
2023-01-19T09:52:04.475Z,88.45
2023-01-19T09:53:04.457Z,88.35
2023-01-19T09:54:04.495Z,88.35
2023-01-19T09:55:04.440Z,88.35
2023-01-19T09:56:04.418Z,88.35
2023-01-19T09:57:04.401Z,88.24
2023-01-19T09:58:04.433Z,88.29
2023-01-19T09:59:04.430Z,88.39
2023-01-19T10:00:04.390Z,88.39
2023-01-19T10:01:04.459Z,88.49
2023-01-19T10:02:04.356Z,88.49
2023-01-19T10:03:04.589Z,88.60
2023-01-19T10:04:04.327Z,88.60
2023-01-19T10:05:04.346Z,88.60
2023-01-19T10:06:04.340Z,88.60
2023-01-19T10:07:04.307Z,88.60
2023-01-19T10:08:04.283Z,88.70
2023-01-19T10:09:04.363Z,88.60
2023-01-19T10:10:04.272Z,88.70
2023-01-19T10:11:04.254Z,88.70
2023-01-19T10:12:04.239Z,88.70
2023-01-19T10:13:04.380Z,88.76
2023-01-19T10:14:04.227Z,88.66
2023-01-19T10:15:04.211Z,88.70
2023-01-19T10:16:04.252Z,88.66
2023-01-19T10:17:04.183Z,88.66
2023-01-19T10:18:04.296Z,88.76
2023-01-19T10:19:04.412Z,88.76
2023-01-19T10:20:04.277Z,88.76
2023-01-19T10:21:05.573Z,88.76
2023-01-19T10:22:04.132Z,88.76
2023-01-19T10:23:04.641Z,88.76
2023-01-19T10:24:05.833Z,88.66
2023-01-19T10:25:04.099Z,88.66
2023-01-19T10:26:04.112Z,88.56
2023-01-19T10:27:04.098Z,88.56
2023-01-19T10:28:04.070Z,88.56
2023-01-19T10:29:04.068Z,88.56
2023-01-19T10:30:04.095Z,88.45
2023-01-19T10:31:04.176Z,88.45
2023-01-19T10:32:04.081Z,88.45
2023-01-19T10:33:04.413Z,88.45
2023-01-19T10:34:04.004Z,88.49
2023-01-19T10:35:04.011Z,88.49
2023-01-19T10:36:03.977Z,88.60
2023-01-19T10:37:03.991Z,88.60
2023-01-19T10:38:03.958Z,88.60
2023-01-19T10:39:03.999Z,88.70
2023-01-19T10:40:03.931Z,88.81
2023-01-19T10:41:03.939Z,88.81
2023-01-19T10:42:03.925Z,88.91
2023-01-19T10:43:04.361Z,88.91
2023-01-19T10:44:03.898Z,88.81
2023-01-19T10:45:03.881Z,88.81
2023-01-19T10:46:03.986Z,88.81
2023-01-19T10:47:03.867Z,88.81
2023-01-19T10:48:03.872Z,88.81
2023-01-19T10:49:03.865Z,88.81
2023-01-19T10:50:03.887Z,88.81
2023-01-19T10:51:03.814Z,88.81
2023-01-19T10:52:03.891Z,88.91
2023-01-19T10:53:04.322Z,88.91
2023-01-19T10:54:03.798Z,88.91
2023-01-19T10:55:03.792Z,88.91
2023-01-19T10:56:03.747Z,88.91
2023-01-19T10:57:03.748Z,88.87
2023-01-19T10:58:03.789Z,88.91
2023-01-19T10:59:03.722Z,88.81
2023-01-19T11:00:03.705Z,88.76
2023-01-19T11:01:03.788Z,88.76
2023-01-19T11:02:03.959Z,88.81
2023-01-19T11:03:04.182Z,88.81
2023-01-19T11:04:03.735Z,88.91
2023-01-19T11:05:03.665Z,88.91
2023-01-19T11:06:03.644Z,88.87
2023-01-19T11:07:03.637Z,88.91
2023-01-19T11:08:03.631Z,88.87
2023-01-19T11:09:03.614Z,88.87
2023-01-19T11:10:03.614Z,88.98
2023-01-19T11:11:03.588Z,88.87
2023-01-19T11:12:03.576Z,88.87
2023-01-19T11:13:04.258Z,88.87
2023-01-19T11:14:03.577Z,88.87
2023-01-19T11:15:03.564Z,88.87
2023-01-19T11:16:03.551Z,88.87
2023-01-19T11:17:03.535Z,88.76
2023-01-19T11:18:03.525Z,88.76
2023-01-19T11:19:03.504Z,88.66
2023-01-19T11:20:03.510Z,88.66
2023-01-19T11:21:03.516Z,88.56
2023-01-19T11:22:03.476Z,88.56
2023-01-19T11:23:03.863Z,88.52
2023-01-19T11:24:03.456Z,88.52
2023-01-19T11:25:03.469Z,88.45
2023-01-19T11:26:03.436Z,88.42
2023-01-19T11:27:03.406Z,88.42
2023-01-19T11:28:03.402Z,88.35
2023-01-19T11:29:03.411Z,88.42
2023-01-19T11:30:03.407Z,88.42
2023-01-19T11:31:03.411Z,88.42
2023-01-19T11:32:03.413Z,88.42
2023-01-19T11:33:03.571Z,88.31
2023-01-19T11:34:03.358Z,88.20
2023-01-19T11:35:03.320Z,88.10
2023-01-19T11:36:03.352Z,87.99
2023-01-19T11:37:03.358Z,87.99
2023-01-19T11:38:03.297Z,87.99
2023-01-19T11:39:03.285Z,87.89
2023-01-19T11:40:03.273Z,87.99
2023-01-19T11:41:03.269Z,87.96
2023-01-19T11:42:03.284Z,87.96
2023-01-19T11:43:03.578Z,87.96
2023-01-19T11:44:03.240Z,87.85
2023-01-19T11:45:03.230Z,87.85
2023-01-19T11:46:03.248Z,87.85
2023-01-19T11:47:03.212Z,87.85
2023-01-19T11:48:03.729Z,87.85
2023-01-19T11:49:03.188Z,87.85
2023-01-19T11:50:03.179Z,87.85
2023-01-19T11:51:03.145Z,87.96
2023-01-19T11:52:03.183Z,87.96
2023-01-19T11:53:03.126Z,87.96
2023-01-19T11:54:03.127Z,87.85
2023-01-19T11:55:03.133Z,87.75
2023-01-19T11:56:03.108Z,87.75
2023-01-19T11:57:03.100Z,87.75
2023-01-19T11:58:03.549Z,87.75
2023-01-19T11:59:03.072Z,87.75
2023-01-19T12:00:03.053Z,87.75
2023-01-19T12:01:03.090Z,87.85
2023-01-19T12:02:03.108Z,87.85
2023-01-19T12:03:03.108Z,87.85
2023-01-19T12:04:03.105Z,87.75
2023-01-19T12:05:03.073Z,87.75
2023-01-19T12:06:02.980Z,87.65
2023-01-19T12:07:02.993Z,87.65
2023-01-19T12:08:05.492Z,87.65
2023-01-19T12:09:02.960Z,87.75
2023-01-19T12:10:02.946Z,87.75
2023-01-19T12:11:02.953Z,87.85
2023-01-19T12:12:02.932Z,87.85
2023-01-19T12:13:02.903Z,87.85
2023-01-19T12:14:02.894Z,87.96
2023-01-19T12:15:03.368Z,87.96
2023-01-19T12:16:02.874Z,87.85
2023-01-19T12:17:02.880Z,87.85
2023-01-19T12:18:03.304Z,87.85
2023-01-19T12:19:02.844Z,87.85
2023-01-19T12:20:02.844Z,87.96
2023-01-19T12:21:04.180Z,87.96
2023-01-19T12:22:02.804Z,87.96
2023-01-19T12:23:02.822Z,87.96
2023-01-19T12:24:02.801Z,87.96
2023-01-19T12:25:02.766Z,87.96
2023-01-19T12:26:02.783Z,88.06
2023-01-19T12:27:02.760Z,88.06
2023-01-19T12:28:02.837Z,88.06
2023-01-19T12:29:02.757Z,88.06
2023-01-19T12:30:02.738Z,88.06
2023-01-19T12:31:02.821Z,88.06
2023-01-19T12:32:02.783Z,88.06
2023-01-19T12:33:02.680Z,88.06
2023-01-19T12:34:02.689Z,88.06
2023-01-19T12:35:02.701Z,88.06
2023-01-19T12:36:02.646Z,88.06
2023-01-19T12:37:02.647Z,88.06
2023-01-19T12:38:02.631Z,88.17
2023-01-19T12:39:02.635Z,88.17
2023-01-19T12:40:02.649Z,88.17
2023-01-19T12:41:02.609Z,88.17
2023-01-19T12:42:02.604Z,88.06
2023-01-19T12:43:02.578Z,88.06
2023-01-19T12:44:02.787Z,88.06
2023-01-19T12:45:02.576Z,88.06
2023-01-19T12:46:02.634Z,88.06
2023-01-19T12:47:02.530Z,88.06
2023-01-19T12:48:02.550Z,88.17
2023-01-19T12:49:02.659Z,88.06
2023-01-19T12:50:02.521Z,88.06
2023-01-19T12:51:02.511Z,88.06
2023-01-19T12:52:02.478Z,88.17
2023-01-19T12:53:02.462Z,88.27